createdAt,value
2023-02-17T00:00:40.499Z,0
2023-02-17T00:01:40.852Z,0
2023-02-17T00:02:41.748Z,0
2023-02-17T00:03:41.663Z,0
2023-02-17T00:04:42.691Z,0
2023-02-17T00:05:42.633Z,0
2023-02-17T00:06:43.843Z,0
2023-02-17T00:07:43.785Z,0
2023-02-17T00:08:44.850Z,0
2023-02-17T00:09:46.354Z,0
2023-02-17T00:10:46.299Z,0
2023-02-17T00:11:46.757Z,0
2023-02-17T00:12:47.692Z,0
2023-02-17T00:13:47.913Z,0
2023-02-17T00:14:47.862Z,0
2023-02-17T00:15:48.928Z,0
2023-02-17T00:16:49.962Z,0
2023-02-17T00:17:49.892Z,0
2023-02-17T00:18:50.123Z,0
2023-02-17T00:19:50.798Z,0
2023-02-17T00:20:51.462Z,0
2023-02-17T00:21:52.603Z,0
2023-02-17T00:22:53.130Z,0
2023-02-17T00:23:53.098Z,0
2023-02-17T00:24:53.479Z,0
2023-02-17T00:25:54.694Z,0
2023-02-17T00:26:54.912Z,0
2023-02-17T00:27:55.848Z,0
2023-02-17T00:28:56.372Z,0
2023-02-17T00:29:56.883Z,0
2023-02-17T00:30:57.110Z,0
2023-02-17T00:31:57.986Z,0
2023-02-17T00:32:58.394Z,0
2023-02-17T00:33:59.051Z,0
2023-02-17T00:35:00.272Z,0
2023-02-17T00:36:00.475Z,0
2023-02-17T00:37:01.308Z,0
2023-02-17T00:38:01.576Z,0
2023-02-17T00:39:02.049Z,0
2023-02-17T00:40:02.986Z,0
2023-02-17T00:41:03.214Z,0
2023-02-17T00:42:03.567Z,0
2023-02-17T00:43:03.793Z,0
2023-02-17T00:44:04.062Z,0
2023-02-17T00:45:04.406Z,0
2023-02-17T00:46:06.054Z,0
2023-02-17T00:47:05.096Z,0
2023-02-17T00:48:06.067Z,0
2023-02-17T00:49:06.351Z,0
2023-02-17T00:50:06.998Z,0
2023-02-17T00:51:07.953Z,0
2023-02-17T00:52:09.070Z,0
2023-02-17T00:53:09.601Z,0
2023-02-17T00:54:09.838Z,0
2023-02-17T00:55:10.038Z,0
2023-02-17T00:56:12.169Z,0
2023-02-17T00:57:11.844Z,0
2023-02-17T00:58:12.072Z,0
2023-02-17T00:59:12.562Z,0
2023-02-17T01:00:12.559Z,0
2023-02-17T01:01:12.806Z,0
2023-02-17T01:02:13.529Z,0
2023-02-17T01:03:13.759Z,0
2023-02-17T01:04:14.415Z,0
2023-02-17T01:05:15.702Z,0
2023-02-17T01:06:16.988Z,0
2023-02-17T01:07:17.598Z,0
2023-02-17T01:08:18.153Z,0
2023-02-17T01:09:18.081Z,0
2023-02-17T01:10:18.527Z,0
2023-02-17T01:11:19.443Z,0
2023-02-17T01:12:20.451Z,0
2023-02-17T01:13:21.115Z,0
2023-02-17T01:14:21.327Z,0
2023-02-17T01:15:21.575Z,0
2023-02-17T01:16:22.487Z,0
2023-02-17T01:17:22.888Z,0
2023-02-17T01:18:22.748Z,0
2023-02-17T01:19:23.693Z,0
2023-02-17T01:20:24.333Z,0
2023-02-17T01:21:25.008Z,0
2023-02-17T01:22:26.752Z,0
2023-02-17T01:23:27.272Z,0
2023-02-17T01:24:27.505Z,0
2023-02-17T01:25:28.155Z,0
2023-02-17T01:26:28.928Z,0
2023-02-17T01:27:28.878Z,0
2023-02-17T01:28:30.111Z,0
2023-02-17T01:29:30.299Z,0
2023-02-17T01:30:30.418Z,0
2023-02-17T01:31:31.176Z,0
2023-02-17T01:32:30.811Z,0
2023-02-17T01:33:31.750Z,0
2023-02-17T01:34:32.994Z,0
2023-02-17T01:35:32.634Z,0
2023-02-17T01:36:34.134Z,0
2023-02-17T01:37:34.446Z,0
2023-02-17T01:38:34.391Z,0
2023-02-17T01:39:35.885Z,0
2023-02-17T01:40:36.381Z,0
2023-02-17T01:41:36.630Z,0
2023-02-17T01:42:36.972Z,0
2023-02-17T01:43:36.656Z,0
2023-02-17T01:44:37.722Z,0
2023-02-17T01:45:38.364Z,0
2023-02-17T01:46:39.875Z,0
2023-02-17T01:47:39.912Z,0
2023-02-17T01:48:40.307Z,0
2023-02-17T01:49:41.238Z,0
2023-02-17T01:50:42.179Z,0
2023-02-17T01:51:42.825Z,0
2023-02-17T01:52:44.188Z,0
2023-02-17T01:53:44.708Z,0
2023-02-17T01:54:45.215Z,0
2023-02-17T01:55:45.708Z,0
2023-02-17T01:56:45.676Z,0
2023-02-17T01:57:46.180Z,0
2023-02-17T01:58:46.114Z,0
2023-02-17T01:59:47.030Z,0
2023-02-17T02:00:47.592Z,0
2023-02-17T02:01:47.874Z,0
2023-02-17T02:02:48.994Z,0
2023-02-17T02:03:49.286Z,0
2023-02-17T02:04:49.808Z,0
2023-02-17T02:05:50.457Z,0
2023-02-17T02:06:51.669Z,0
2023-02-17T02:07:51.986Z,0
2023-02-17T02:08:52.215Z,0
2023-02-17T02:09:52.872Z,0
2023-02-17T02:10:54.097Z,0
2023-02-17T02:11:54.756Z,0
2023-02-17T02:12:55.777Z,0
2023-02-17T02:13:55.995Z,0
2023-02-17T02:14:56.232Z,0
2023-02-17T02:15:56.876Z,0
2023-02-17T02:16:57.913Z,0
2023-02-17T02:17:59.434Z,0
2023-02-17T02:18:59.649Z,0
2023-02-17T02:20:00.295Z,0
2023-02-17T02:21:01.795Z,0
2023-02-17T02:22:02.048Z,0
2023-02-17T02:23:03.484Z,0
2023-02-17T02:24:03.758Z,0
2023-02-17T02:25:04.268Z,0
2023-02-17T02:26:04.769Z,0
2023-02-17T02:27:04.616Z,0
2023-02-17T02:28:04.834Z,0
2023-02-17T02:29:05.748Z,0
2023-02-17T02:30:06.831Z,0
2023-02-17T02:31:06.993Z,0
2023-02-17T02:32:07.737Z,0
2023-02-17T02:33:08.489Z,0
2023-02-17T02:34:09.159Z,0
2023-02-17T02:35:10.105Z,0
2023-02-17T02:36:11.778Z,0
2023-02-17T02:37:11.994Z,0
2023-02-17T02:38:13.238Z,0
2023-02-17T02:39:13.185Z,0
2023-02-17T02:40:14.102Z,0
2023-02-17T02:41:14.766Z,0
2023-02-17T02:42:15.986Z,0
2023-02-17T02:43:16.046Z,0
2023-02-17T02:44:16.244Z,0
2023-02-17T02:45:16.900Z,0
2023-02-17T02:46:18.208Z,0
2023-02-17T02:47:18.424Z,0
2023-02-17T02:48:18.934Z,0
2023-02-17T02:49:18.583Z,0
2023-02-17T02:50:19.234Z,0
2023-02-17T02:51:20.170Z,0
2023-02-17T02:52:20.405Z,0
2023-02-17T02:53:21.207Z,0
2023-02-17T02:54:21.456Z,0
2023-02-17T02:55:21.674Z,0
2023-02-17T02:56:22.607Z,0
2023-02-17T02:57:22.725Z,0
2023-02-17T02:58:22.642Z,0
2023-02-17T02:59:23.863Z,0
2023-02-17T03:00:24.104Z,0
2023-02-17T03:01:25.385Z,0
2023-02-17T03:02:25.328Z,0
2023-02-17T03:03:26.363Z,0
2023-02-17T03:04:26.491Z,0
2023-02-17T03:05:27.429Z,0
2023-02-17T03:06:28.109Z,0
2023-02-17T03:07:29.047Z,0
2023-02-17T03:08:29.655Z,0
2023-02-17T03:09:29.312Z,0
2023-02-17T03:10:30.800Z,0
2023-02-17T03:11:30.738Z,0
2023-02-17T03:12:30.970Z,0
2023-02-17T03:13:31.571Z,0
2023-02-17T03:14:31.787Z,0
2023-02-17T03:15:32.980Z,0
2023-02-17T03:16:32.500Z,0
2023-02-17T03:17:32.931Z,0
2023-02-17T03:18:33.264Z,0
2023-02-17T03:19:33.599Z,0
2023-02-17T03:20:34.800Z,0
2023-02-17T03:21:35.722Z,0
2023-02-17T03:22:36.217Z,0
2023-02-17T03:23:36.942Z,0
2023-02-17T03:24:37.235Z,0
2023-02-17T03:25:37.724Z,0
2023-02-17T03:26:38.799Z,0
2023-02-17T03:27:38.723Z,0
2023-02-17T03:28:40.082Z,0
2023-02-17T03:29:40.022Z,0
2023-02-17T03:30:40.029Z,0
2023-02-17T03:31:42.601Z,0
2023-02-17T03:32:41.480Z,0
2023-02-17T03:33:42.526Z,0
2023-02-17T03:34:43.461Z,0
2023-02-17T03:35:44.748Z,0
2023-02-17T03:36:45.237Z,0
2023-02-17T03:37:45.448Z,0
2023-02-17T03:38:46.025Z,0
2023-02-17T03:39:46.257Z,0
2023-02-17T03:40:46.935Z,0
2023-02-17T03:41:47.846Z,0
2023-02-17T03:42:48.762Z,0
2023-02-17T03:43:49.344Z,0
2023-02-17T03:44:49.643Z,0
2023-02-17T03:45:50.703Z,0
2023-02-17T03:46:51.367Z,0
2023-02-17T03:47:52.010Z,0
2023-02-17T03:48:52.942Z,0
2023-02-17T03:49:53.564Z,0
2023-02-17T03:50:54.501Z,0
2023-02-17T03:51:55.711Z,0
2023-02-17T03:52:55.058Z,0
2023-02-17T03:53:56.424Z,0
2023-02-17T03:54:56.946Z,0
2023-02-17T03:55:57.590Z,0
2023-02-17T03:56:58.250Z,0
2023-02-17T03:57:59.742Z,0
2023-02-17T03:58:59.682Z,0
2023-02-17T04:00:00.630Z,0
2023-02-17T04:01:01.306Z,0
2023-02-17T04:02:02.118Z,0
2023-02-17T04:03:02.761Z,0
2023-02-17T04:04:03.273Z,0
2023-02-17T04:05:03.885Z,0
2023-02-17T04:06:04.158Z,0
2023-02-17T04:07:04.936Z,0
2023-02-17T04:08:05.058Z,0
2023-02-17T04:09:05.671Z,0
2023-02-17T04:10:07.770Z,0
2023-02-17T04:11:06.080Z,0
2023-02-17T04:12:07.310Z,0
2023-02-17T04:13:07.801Z,0
2023-02-17T04:14:07.589Z,0
2023-02-17T04:15:08.504Z,0
2023-02-17T04:16:08.661Z,0
2023-02-17T04:17:09.289Z,0
2023-02-17T04:18:09.797Z,0
2023-02-17T04:19:09.712Z,0
2023-02-17T04:20:11.206Z,0
2023-02-17T04:21:11.138Z,0
2023-02-17T04:22:11.765Z,0
2023-02-17T04:23:13.251Z,0
2023-02-17T04:24:13.703Z,0
2023-02-17T04:25:13.963Z,0
2023-02-17T04:26:15.333Z,0
2023-02-17T04:27:15.246Z,0
2023-02-17T04:28:16.469Z,0
2023-02-17T04:29:16.390Z,0
2023-02-17T04:30:18.572Z,0
2023-02-17T04:31:18.484Z,0
2023-02-17T04:32:18.189Z,0
2023-02-17T04:33:18.104Z,0
2023-02-17T04:34:19.098Z,0
2023-02-17T04:35:20.048Z,0
2023-02-17T04:36:20.159Z,0
2023-02-17T04:37:20.794Z,0
2023-02-17T04:38:22.010Z,0
2023-02-17T04:39:23.733Z,0
2023-02-17T04:40:23.739Z,0
2023-02-17T04:41:24.644Z,0
2023-02-17T04:42:25.170Z,0
2023-02-17T04:43:25.558Z,0
2023-02-17T04:44:26.912Z,0
2023-02-17T04:45:27.133Z,0
2023-02-17T04:46:27.863Z,0
2023-02-17T04:47:27.797Z,0
2023-02-17T04:48:28.292Z,0
2023-02-17T04:49:28.229Z,0
2023-02-17T04:50:30.231Z,0
2023-02-17T04:51:28.574Z,0
2023-02-17T04:52:29.489Z,0
2023-02-17T04:53:29.981Z,0
2023-02-17T04:54:30.627Z,0
2023-02-17T04:55:30.855Z,0
2023-02-17T04:56:32.074Z,0
2023-02-17T04:57:31.782Z,0
2023-02-17T04:58:32.984Z,0
2023-02-17T04:59:34.026Z,0
2023-02-17T05:00:33.666Z,0
2023-02-17T05:01:34.813Z,0
2023-02-17T05:02:34.821Z,0
2023-02-17T05:03:36.029Z,0
2023-02-17T05:04:36.322Z,0
2023-02-17T05:05:37.048Z,0
2023-02-17T05:06:36.975Z,0
2023-02-17T05:07:38.184Z,0
2023-02-17T05:08:38.424Z,0
2023-02-17T05:09:38.703Z,0
2023-02-17T05:10:39.210Z,0
2023-02-17T05:11:39.120Z,0
2023-02-17T05:12:40.030Z,0
2023-02-17T05:13:40.678Z,0
2023-02-17T05:14:41.971Z,0
2023-02-17T05:15:44.420Z,0
2023-02-17T05:16:42.464Z,0
2023-02-17T05:17:42.971Z,0
2023-02-17T05:18:42.610Z,0
2023-02-17T05:19:43.828Z,0
2023-02-17T05:20:43.776Z,0
2023-02-17T05:21:44.305Z,0
2023-02-17T05:22:45.241Z,0
2023-02-17T05:23:45.172Z,0
2023-02-17T05:24:49.021Z,0
2023-02-17T05:25:46.965Z,0
2023-02-17T05:26:47.594Z,0
2023-02-17T05:27:48.725Z,0
2023-02-17T05:28:48.934Z,0
2023-02-17T05:29:49.840Z,0
2023-02-17T05:30:51.172Z,0
2023-02-17T05:31:51.566Z,0
2023-02-17T05:32:51.277Z,0
2023-02-17T05:33:52.482Z,0
2023-02-17T05:34:53.057Z,0
2023-02-17T05:35:52.422Z,0
2023-02-17T05:36:54.069Z,0
2023-02-17T05:37:53.772Z,0
2023-02-17T05:38:54.696Z,0
2023-02-17T05:39:56.337Z,0
2023-02-17T05:40:56.882Z,0
2023-02-17T05:41:57.109Z,0
2023-02-17T05:42:57.460Z,0
2023-02-17T05:43:58.401Z,0
2023-02-17T05:44:59.440Z,0
2023-02-17T05:45:59.717Z,0
2023-02-17T05:47:00.302Z,0
2023-02-17T05:48:00.216Z,0
2023-02-17T05:49:00.899Z,0
2023-02-17T05:50:02.131Z,0
2023-02-17T05:51:02.327Z,0
2023-02-17T05:52:02.956Z,0
2023-02-17T05:53:03.458Z,0
2023-02-17T05:54:03.392Z,0
2023-02-17T05:55:03.925Z,0
2023-02-17T05:56:04.196Z,0
2023-02-17T05:57:05.237Z,0
2023-02-17T05:58:05.894Z,0
2023-02-17T05:59:07.378Z,0
2023-02-17T06:00:07.913Z,4
2023-02-17T06:01:07.836Z,4
2023-02-17T06:02:08.477Z,0
2023-02-17T06:03:09.333Z,0
2023-02-17T06:04:09.408Z,0
2023-02-17T06:05:10.446Z,4
2023-02-17T06:06:11.684Z,4
2023-02-17T06:07:10.598Z,4
2023-02-17T06:08:11.262Z,4
2023-02-17T06:09:11.777Z,4
2023-02-17T06:10:12.813Z,4
2023-02-17T06:11:12.790Z,4
2023-02-17T06:12:13.480Z,8
2023-02-17T06:13:14.413Z,8
2023-02-17T06:14:15.338Z,12
2023-02-17T06:15:16.603Z,12
2023-02-17T06:16:17.353Z,8
2023-02-17T06:17:16.357Z,12
2023-02-17T06:18:17.947Z,12
2023-02-17T06:19:17.581Z,12
2023-02-17T06:20:19.081Z,12
2023-02-17T06:21:18.996Z,16
2023-02-17T06:22:19.942Z,12
2023-02-17T06:23:20.164Z,16
2023-02-17T06:24:21.398Z,16
2023-02-17T06:25:21.807Z,20
2023-02-17T06:26:22.082Z,20
2023-02-17T06:27:23.030Z,24
2023-02-17T06:28:22.976Z,24
2023-02-17T06:29:24.185Z,24
2023-02-17T06:30:25.286Z,28
2023-02-17T06:31:25.582Z,28
2023-02-17T06:32:25.645Z,32
2023-02-17T06:33:26.948Z,36
2023-02-17T06:34:26.852Z,40
2023-02-17T06:35:27.608Z,40
2023-02-17T06:36:27.532Z,44
2023-02-17T06:37:28.452Z,52
2023-02-17T06:38:29.531Z,52
2023-02-17T06:39:30.038Z,52
2023-02-17T06:40:30.324Z,56
2023-02-17T06:41:30.590Z,60
2023-02-17T06:42:31.093Z,60
2023-02-17T06:43:30.718Z,60
2023-02-17T06:44:31.376Z,64
2023-02-17T06:45:32.588Z,64
2023-02-17T06:46:32.300Z,64
2023-02-17T06:47:32.938Z,68
2023-02-17T06:48:33.211Z,76
2023-02-17T06:49:34.492Z,80
2023-02-17T06:50:34.461Z,88
2023-02-17T06:51:35.105Z,96
2023-02-17T06:52:36.311Z,100
2023-02-17T06:53:36.819Z,108
2023-02-17T06:54:37.329Z,116
2023-02-17T06:55:37.724Z,124
2023-02-17T06:56:37.954Z,128
2023-02-17T06:57:37.749Z,132
2023-02-17T06:58:38.120Z,140
2023-02-17T06:59:38.758Z,152
2023-02-17T07:00:39.701Z,156
2023-02-17T07:01:40.167Z,160
2023-02-17T07:02:41.448Z,168
2023-02-17T07:03:41.626Z,176
2023-02-17T07:04:41.846Z,180
2023-02-17T07:05:42.656Z,184
2023-02-17T07:06:42.899Z,184
2023-02-17T07:07:42.838Z,192
2023-02-17T07:08:45.567Z,192
2023-02-17T07:09:44.504Z,192
2023-02-17T07:10:45.793Z,188
2023-02-17T07:11:45.739Z,188
2023-02-17T07:12:46.381Z,192
2023-02-17T07:13:47.341Z,196
2023-02-17T07:14:48.533Z,192
2023-02-17T07:15:49.098Z,192
2023-02-17T07:16:49.084Z,192
2023-02-17T07:17:50.012Z,196
2023-02-17T07:18:50.251Z,196
2023-02-17T07:19:50.471Z,192
2023-02-17T07:20:51.981Z,192
2023-02-17T07:21:52.469Z,192
2023-02-17T07:22:52.559Z,192
2023-02-17T07:23:53.775Z,192
2023-02-17T07:24:55.001Z,204
2023-02-17T07:25:55.433Z,212
2023-02-17T07:26:55.719Z,220
2023-02-17T07:27:56.241Z,228
2023-02-17T07:28:56.889Z,236
2023-02-17T07:29:57.155Z,244
2023-02-17T07:30:57.332Z,244
2023-02-17T07:31:58.419Z,244
2023-02-17T07:32:58.775Z,260
2023-02-17T07:33:58.030Z,272
2023-02-17T07:34:58.957Z,292
2023-02-17T07:35:59.965Z,320
2023-02-17T07:37:00.947Z,356
2023-02-17T07:38:00.884Z,396
2023-02-17T07:39:02.417Z,448
2023-02-17T07:40:03.090Z,480
2023-02-17T07:41:04.421Z,492
2023-02-17T07:42:04.642Z,488
2023-02-17T07:43:05.342Z,468
2023-02-17T07:44:06.004Z,452
2023-02-17T07:45:06.655Z,440
2023-02-17T07:46:11.672Z,420
2023-02-17T07:47:09.008Z,408
2023-02-17T07:48:09.507Z,396
2023-02-17T07:49:10.047Z,380
2023-02-17T07:50:10.244Z,364
2023-02-17T07:51:10.880Z,356
2023-02-17T07:52:11.600Z,368
2023-02-17T07:53:12.520Z,384
2023-02-17T07:54:13.017Z,400
2023-02-17T07:55:13.521Z,396
2023-02-17T07:56:14.539Z,384
2023-02-17T07:57:13.779Z,380
2023-02-17T07:58:13.422Z,380
2023-02-17T07:59:14.646Z,380
2023-02-17T08:00:16.877Z,392
2023-02-17T08:01:14.968Z,384
2023-02-17T08:02:16.513Z,368
2023-02-17T08:03:16.756Z,360
2023-02-17T08:04:17.883Z,348
2023-02-17T08:05:18.187Z,348
2023-02-17T08:06:19.266Z,360
2023-02-17T08:07:19.208Z,368
2023-02-17T08:08:20.154Z,392
2023-02-17T08:09:20.405Z,424
2023-02-17T08:10:21.328Z,464
2023-02-17T08:11:22.635Z,488
2023-02-17T08:12:23.137Z,512
2023-02-17T08:13:23.062Z,516
2023-02-17T08:14:24.699Z,524
2023-02-17T08:15:23.667Z,528
2023-02-17T08:16:25.091Z,532
2023-02-17T08:17:25.496Z,540
2023-02-17T08:18:26.416Z,556
2023-02-17T08:19:30.021Z,576
2023-02-17T08:20:27.281Z,580
2023-02-17T08:21:27.967Z,576
2023-02-17T08:22:28.635Z,580
2023-02-17T08:23:28.901Z,584
2023-02-17T08:24:29.441Z,592
2023-02-17T08:25:30.018Z,588
2023-02-17T08:26:30.775Z,584
2023-02-17T08:27:31.048Z,592
2023-02-17T08:28:31.289Z,616
2023-02-17T08:29:32.633Z,616
2023-02-17T08:30:33.001Z,616
2023-02-17T08:31:33.849Z,632
2023-02-17T08:32:33.967Z,660
2023-02-17T08:33:34.209Z,712
2023-02-17T08:34:34.470Z,764
2023-02-17T08:35:34.712Z,792
2023-02-17T08:36:35.727Z,812
2023-02-17T08:37:36.013Z,816
2023-02-17T08:38:37.041Z,800
2023-02-17T08:39:38.092Z,792
2023-02-17T08:40:39.056Z,812
2023-02-17T08:41:40.494Z,844
2023-02-17T08:42:40.489Z,888
2023-02-17T08:43:41.273Z,900
2023-02-17T08:44:41.840Z,892
2023-02-17T08:45:42.222Z,924
2023-02-17T08:46:42.713Z,944
2023-02-17T08:47:43.131Z,960
2023-02-17T08:48:45.811Z,968
2023-02-17T08:49:45.054Z,984
2023-02-17T08:50:45.281Z,1032
2023-02-17T08:51:46.293Z,1040
2023-02-17T08:52:47.342Z,1044
2023-02-17T08:53:48.083Z,1100
2023-02-17T08:54:51.560Z,1132
2023-02-17T08:56:05.949Z,1068
2023-02-17T08:56:54.773Z,1000
2023-02-17T08:57:55.220Z,956
2023-02-17T08:58:55.635Z,936
2023-02-17T08:59:55.893Z,1044
2023-02-17T09:00:56.858Z,1168
2023-02-17T09:01:58.434Z,1196
2023-02-17T09:02:58.978Z,1168
2023-02-17T09:03:59.461Z,1104
2023-02-17T09:04:59.772Z,1004
2023-02-17T09:06:01.932Z,924
2023-02-17T09:07:00.691Z,872
2023-02-17T09:08:01.786Z,840
2023-02-17T09:09:01.895Z,840
2023-02-17T09:10:02.671Z,864
2023-02-17T09:11:03.779Z,904
2023-02-17T09:12:04.077Z,924
2023-02-17T09:13:03.809Z,980
2023-02-17T09:14:05.340Z,1016
2023-02-17T09:15:05.755Z,1092
2023-02-17T09:16:07.065Z,1204
2023-02-17T09:17:07.036Z,1288
2023-02-17T09:18:07.392Z,1384
2023-02-17T09:19:07.810Z,1504
2023-02-17T09:20:16.329Z,1608
2023-02-17T09:21:08.503Z,1588
2023-02-17T09:22:09.276Z,1548
2023-02-17T09:23:10.232Z,1580
2023-02-17T09:24:11.227Z,1648
2023-02-17T09:25:11.474Z,1692
2023-02-17T09:26:13.335Z,1764
2023-02-17T09:27:13.158Z,1808
2023-02-17T09:28:13.865Z,1744
2023-02-17T09:29:14.186Z,1724
2023-02-17T09:30:15.679Z,1712
2023-02-17T09:31:16.963Z,1756
2023-02-17T09:32:17.124Z,1852
2023-02-17T09:33:16.750Z,1836
2023-02-17T09:34:17.351Z,1788
2023-02-17T09:35:18.437Z,1760
2023-02-17T09:36:19.229Z,1776
2023-02-17T09:37:19.715Z,1748
2023-02-17T09:38:19.442Z,1692
2023-02-17T09:39:23.730Z,1704
2023-02-17T09:40:21.205Z,1816
2023-02-17T09:41:21.828Z,2076
2023-02-17T09:42:22.754Z,2416
2023-02-17T09:43:23.113Z,2644
2023-02-17T09:44:23.638Z,2660
2023-02-17T09:45:24.696Z,2524
2023-02-17T09:46:24.555Z,2132
2023-02-17T09:47:25.308Z,1816
2023-02-17T09:48:26.677Z,1592
2023-02-17T09:49:26.910Z,1260
2023-02-17T09:50:27.713Z,976
2023-02-17T09:51:28.716Z,784
2023-02-17T09:52:30.094Z,664
2023-02-17T09:53:30.437Z,612
2023-02-17T09:54:29.954Z,600
2023-02-17T09:55:31.671Z,612
2023-02-17T09:56:33.586Z,644
2023-02-17T09:57:32.605Z,696
2023-02-17T09:58:33.299Z,780
2023-02-17T09:59:33.208Z,848
2023-02-17T10:00:34.032Z,912
2023-02-17T10:01:34.417Z,984
2023-02-17T10:02:34.868Z,1060
2023-02-17T10:03:36.710Z,1048
2023-02-17T10:04:36.728Z,944
2023-02-17T10:05:37.078Z,884
2023-02-17T10:06:37.825Z,884
2023-02-17T10:07:38.595Z,860
2023-02-17T10:08:38.393Z,808
2023-02-17T10:09:39.872Z,796
2023-02-17T10:10:39.973Z,796
2023-02-17T10:11:40.427Z,796
2023-02-17T10:12:41.271Z,840
2023-02-17T10:13:42.153Z,908
2023-02-17T10:14:42.852Z,972
2023-02-17T10:15:43.553Z,972
2023-02-17T10:16:44.027Z,916
2023-02-17T10:17:44.402Z,916
2023-02-17T10:18:44.377Z,988
2023-02-17T10:19:44.717Z,1072
2023-02-17T10:20:45.057Z,1136
2023-02-17T10:21:45.851Z,1220
2023-02-17T10:22:46.375Z,1200
2023-02-17T10:23:46.703Z,1084
2023-02-17T10:24:46.733Z,1108
2023-02-17T10:25:48.195Z,1144
2023-02-17T10:26:50.892Z,1136
2023-02-17T10:27:49.404Z,1040
2023-02-17T10:28:50.131Z,1016
2023-02-17T10:29:50.989Z,1052
2023-02-17T10:30:52.154Z,1048
2023-02-17T10:31:52.284Z,956
2023-02-17T10:32:52.481Z,976
2023-02-17T10:33:52.424Z,980
2023-02-17T10:34:52.904Z,980
2023-02-17T10:35:53.316Z,1004
2023-02-17T10:36:54.208Z,1112
2023-02-17T10:37:54.636Z,1304
2023-02-17T10:38:54.649Z,1296
2023-02-17T10:39:55.319Z,1100
2023-02-17T10:40:55.826Z,996
2023-02-17T10:41:55.760Z,964
2023-02-17T10:42:57.431Z,972
2023-02-17T10:43:57.398Z,944
2023-02-17T10:44:58.766Z,872
2023-02-17T10:45:58.857Z,856
2023-02-17T10:47:00.387Z,884
2023-02-17T10:48:00.486Z,920
2023-02-17T10:49:01.167Z,976
2023-02-17T10:50:01.828Z,1020
2023-02-17T10:51:01.807Z,1088
2023-02-17T10:52:02.754Z,1088
2023-02-17T10:53:03.409Z,1144
2023-02-17T10:54:03.613Z,1244
2023-02-17T10:55:08.747Z,1244
2023-02-17T10:56:04.916Z,1344
2023-02-17T10:57:04.771Z,1484
2023-02-17T10:58:06.189Z,1608
2023-02-17T10:59:06.709Z,1776
2023-02-17T11:00:06.915Z,1844
2023-02-17T11:01:06.802Z,1444
2023-02-17T11:02:08.216Z,1484
2023-02-17T11:03:08.462Z,1776
2023-02-17T11:04:10.675Z,1720
2023-02-17T11:05:09.710Z,1372
2023-02-17T11:06:11.024Z,1260
2023-02-17T11:07:10.525Z,1260
2023-02-17T11:08:10.606Z,1320
2023-02-17T11:09:11.336Z,1380
2023-02-17T11:10:13.118Z,1456
2023-02-17T11:11:12.091Z,1624
2023-02-17T11:12:12.608Z,1612
2023-02-17T11:13:13.198Z,1636
2023-02-17T11:14:13.751Z,1344
2023-02-17T11:15:13.734Z,1192
2023-02-17T11:16:17.287Z,1032
2023-02-17T11:17:15.301Z,1012
2023-02-17T11:18:16.247Z,980
2023-02-17T11:19:17.357Z,932
2023-02-17T11:20:17.528Z,916
2023-02-17T11:21:18.494Z,872
2023-02-17T11:22:18.980Z,780
2023-02-17T11:23:18.616Z,736
2023-02-17T11:24:19.573Z,736
2023-02-17T11:25:20.511Z,756
2023-02-17T11:26:21.001Z,796
2023-02-17T11:27:21.232Z,828
2023-02-17T11:28:23.888Z,864
2023-02-17T11:29:22.018Z,868
2023-02-17T11:30:22.857Z,876
2023-02-17T11:31:23.418Z,932
2023-02-17T11:32:24.360Z,992
2023-02-17T11:33:24.558Z,1000
2023-02-17T11:34:24.928Z,1072
2023-02-17T11:35:26.159Z,1168
2023-02-17T11:36:27.110Z,1204
2023-02-17T11:37:27.654Z,1172
2023-02-17T11:38:28.175Z,1088
2023-02-17T11:39:28.689Z,1076
2023-02-17T11:40:32.612Z,1160
2023-02-17T11:41:29.841Z,1144
2023-02-17T11:42:29.801Z,1008
2023-02-17T11:43:30.463Z,1112
2023-02-17T11:44:30.739Z,1360
2023-02-17T11:45:31.087Z,1508
2023-02-17T11:46:31.135Z,1668
2023-02-17T11:47:32.343Z,1888
2023-02-17T11:48:32.988Z,1872
2023-02-17T11:49:33.189Z,1688
2023-02-17T11:50:50.105Z,1932
2023-02-17T11:51:33.752Z,2028
2023-02-17T11:52:35.350Z,2048
2023-02-17T11:53:35.577Z,2008
2023-02-17T11:54:35.786Z,1948
2023-02-17T11:55:36.713Z,1960
2023-02-17T11:56:36.937Z,1920
2023-02-17T11:57:37.857Z,1764
2023-02-17T11:58:39.174Z,1796
2023-02-17T11:59:39.448Z,1744
2023-02-17T12:00:39.672Z,1720
2023-02-17T12:01:40.334Z,1716
2023-02-17T12:02:39.985Z,1748
2023-02-17T12:03:42.949Z,1768
2023-02-17T12:04:41.979Z,1752
2023-02-17T12:05:42.536Z,1700
2023-02-17T12:06:42.593Z,1592
2023-02-17T12:07:43.121Z,1548
2023-02-17T12:08:45.268Z,1500
2023-02-17T12:09:44.092Z,1408
2023-02-17T12:10:44.720Z,1408
2023-02-17T12:11:45.968Z,1368
2023-02-17T12:12:46.487Z,1380
2023-02-17T12:13:46.844Z,1436
2023-02-17T12:14:47.358Z,1408
2023-02-17T12:15:47.563Z,1452
2023-02-17T12:16:47.849Z,1516
2023-02-17T12:17:48.158Z,1480
2023-02-17T12:18:48.905Z,1560
2023-02-17T12:19:49.841Z,1616
2023-02-17T12:20:50.055Z,1652
2023-02-17T12:21:50.793Z,1708
2023-02-17T12:22:51.422Z,1804
2023-02-17T12:23:52.665Z,1900
2023-02-17T12:24:52.338Z,1940
2023-02-17T12:25:53.572Z,1916
2023-02-17T12:26:54.085Z,1928
2023-02-17T12:27:53.766Z,1872
2023-02-17T12:28:55.187Z,1888
2023-02-17T12:29:55.471Z,2008
2023-02-17T12:30:56.627Z,2028
2023-02-17T12:31:57.065Z,1916
2023-02-17T12:32:56.788Z,1804
2023-02-17T12:33:57.299Z,1820
2023-02-17T12:34:57.247Z,1788
2023-02-17T12:35:58.625Z,1784
2023-02-17T12:36:59.310Z,1772
2023-02-17T12:37:59.756Z,1836
2023-02-17T12:38:59.761Z,1880
2023-02-17T12:40:00.367Z,1824
2023-02-17T12:41:00.282Z,1712
2023-02-17T12:42:01.217Z,1680
2023-02-17T12:43:01.842Z,1592
2023-02-17T12:44:03.450Z,1536
2023-02-17T12:45:03.694Z,1420
2023-02-17T12:46:04.711Z,1308
2023-02-17T12:47:05.472Z,1348
2023-02-17T12:48:05.141Z,1340
2023-02-17T12:49:07.523Z,1292
2023-02-17T12:50:06.520Z,1240
2023-02-17T12:51:07.769Z,1168
2023-02-17T12:52:08.703Z,1076
2023-02-17T12:53:08.929Z,1076
2023-02-17T12:54:09.449Z,1064
2023-02-17T12:55:09.111Z,976
2023-02-17T12:56:10.928Z,868
2023-02-17T12:57:10.240Z,792
2023-02-17T12:58:11.289Z,736
2023-02-17T12:59:11.996Z,692
2023-02-17T13:00:12.535Z,632
2023-02-17T13:01:13.123Z,572
2023-02-17T13:02:13.953Z,540
2023-02-17T13:03:13.755Z,524
2023-02-17T13:04:15.051Z,540
2023-02-17T13:05:15.278Z,576
2023-02-17T13:06:16.001Z,612
2023-02-17T13:07:16.378Z,632
2023-02-17T13:08:16.308Z,652
2023-02-17T13:09:17.654Z,652
2023-02-17T13:10:17.571Z,692
2023-02-17T13:11:18.953Z,728
2023-02-17T13:12:18.868Z,740
2023-02-17T13:13:20.845Z,732
2023-02-17T13:14:20.001Z,700
2023-02-17T13:15:20.251Z,648
2023-02-17T13:16:21.137Z,620
2023-02-17T13:17:21.658Z,584
2023-02-17T13:18:22.185Z,500
2023-02-17T13:19:22.192Z,468
2023-02-17T13:20:22.147Z,468
2023-02-17T13:21:23.079Z,476
2023-02-17T13:22:23.748Z,512
2023-02-17T13:23:24.256Z,532
2023-02-17T13:24:24.768Z,524
2023-02-17T13:25:24.992Z,524
2023-02-17T13:26:25.248Z,528
2023-02-17T13:27:25.488Z,528
2023-02-17T13:28:25.828Z,512
2023-02-17T13:29:26.968Z,512
2023-02-17T13:30:26.971Z,516
2023-02-17T13:31:28.224Z,512
2023-02-17T13:32:29.427Z,504
2023-02-17T13:33:29.354Z,488
2023-02-17T13:34:29.857Z,484
2023-02-17T13:35:29.550Z,488
2023-02-17T13:36:31.107Z,504
2023-02-17T13:37:31.338Z,520
2023-02-17T13:38:31.311Z,540
2023-02-17T13:39:32.406Z,572
2023-02-17T13:40:32.895Z,628
2023-02-17T13:41:32.836Z,676
2023-02-17T13:42:33.124Z,736
2023-02-17T13:43:34.060Z,796
2023-02-17T13:44:34.672Z,880
2023-02-17T13:45:35.030Z,940
2023-02-17T13:46:35.454Z,896
2023-02-17T13:47:37.809Z,888
2023-02-17T13:48:36.571Z,948
2023-02-17T13:49:37.914Z,996
2023-02-17T13:50:38.197Z,1156
2023-02-17T13:51:39.408Z,1280
2023-02-17T13:52:39.843Z,1368
2023-02-17T13:53:43.683Z,1352
2023-02-17T13:54:41.344Z,1272
2023-02-17T13:55:42.613Z,1144
2023-02-17T13:56:43.309Z,1080
2023-02-17T13:57:43.534Z,976
2023-02-17T13:58:44.077Z,888
2023-02-17T13:59:44.902Z,836
2023-02-17T14:00:45.136Z,716
2023-02-17T14:01:45.857Z,700
2023-02-17T14:02:47.711Z,716
2023-02-17T14:03:46.948Z,776
2023-02-17T14:04:47.309Z,788
2023-02-17T14:05:47.265Z,800
2023-02-17T14:06:48.587Z,808
2023-02-17T14:07:48.951Z,848
2023-02-17T14:08:49.905Z,1036
2023-02-17T14:09:50.508Z,996
2023-02-17T14:10:50.784Z,952
2023-02-17T14:11:50.171Z,920
2023-02-17T14:12:51.212Z,876
2023-02-17T14:13:52.477Z,840
2023-02-17T14:14:53.517Z,812